Terminal Aerodrome Forecast
Issued by NWS

Home | Current Version | Previous Version | Text Only | Print | Product List | Glossary On
Versions: 1 2 3 4 5 6 7 8 9 10 11 12 13 14 15 16 17 18 19 20
891
FTUS43 KIND 222328
TAFHUF
TAF
KHUF 222328Z 2300/2324 17011KT P6SM VCSH SCT020 OVC040
      TEMPO 2300/2303 OVC020
     FM230300 17010KT P6SM OVC015
     FM230800 20009KT P6SM SHRA VCTS OVC015CB
     FM231500 22008KT 3SM +SHRA VCTS OVC008CB
     FM231800 24008KT 5SM SHRA OVC008=

USA.gov is the U.S. government's official web portal to all federal, state and local government web resources and services.